Safford, AZ

1:07 AM MST on October 24, 2014 (GMT -0700)
Safford Regional | Change Station
CLOSE
Current Station
Airport
Location: Safford,
Elevation: 3176 ft
Nearby Weather Stations

Elev 3176 ft 32.86 °N, 109.64 °W | Updated 16 minutes ago

Clear
Clear
59 °F
Feels Like 59 °F
N
0
Wind Variable Wind from North

Today
High -- | Low -- °F
--% Chance of Precip.
Yesterday
High -- | Low -- °F
Precip. -- in
6:29 AM 5:35 PM
New Moon, 0% visible
Pressure 30.01 in
Visibility 10.0 miles
Clouds Clear
Dew Point 49 °F
Humidity 69%
Rainfall 0.00 in
Snow Depth Not available.
UV 0 out of 12
Pollen 4.70 out of 12
Air Quality Not available.
Flu Activity No Activity
METAR KSAD 240751Z AUTO 00000KT 10SM CLR 15/09 A3013 RMK AO2 SLP162 T01500094

More Conditions Fewer Conditions

Pressure 30.01 in
Visibility 10.0 miles
Clouds Clear
Dew Point 49 °F
Humidity 69%
Rainfall 0.00 in
Snow Depth Not available.
UV 0 out of 12
Pollen 4.70 out of 12
Air Quality Not available.
Flu Activity No Activity
METAR KSAD 240751Z AUTO 00000KT 10SM CLR 15/09 A3013 RMK AO2 SLP162 T01500094

More Conditions Fewer Conditions

10-Day Weather Forecast

Almanac

Astronomy

Oct. 24, 2014 Rise Set
Actual Time 6:29 AM MST 5:35 PM MST
Civil Twilight 6:04 AM MST 6:00 PM MST
Nautical Twilight 5:35 AM MST 6:29 PM MST
Astronomical Twilight 5:07 AM MST 6:57 PM MST
Moon 7:10 AM MST 6:20 PM MST
Length of Visible Light 11h 55m
Length of Day
11h 05m
Tomorrow will be 1m 52s shorter.
New Moon, 0% of the Moon is Illuminated
Today
New Moon
Oct 30
First Quarter
Nov 6
Full
Nov 14
Last Quarter
Nov 22
New

Today's Extremes

State Highs State Lows

Community

WunderPhotos

Upload Photos

1,764,512 photos uploaded!

WunderBlogs® & News

Nearby

Snow Depth

Station Depth Elevation
Hannagan Meadows 1 in 9020 ft
Wildcat 0 in 7850 ft
Beaver Head 1 in 7990 ft
Coronado Trail 0 in 8400 ft
Maverick Fork 1 in 9200 ft

Earthquake Activity

City Distance Mag. Time & Date
No recent earthquake activity has been reported nearby.
Minimum magnitude displayed is 2.5.

Coastal Water Temperatures

Place Temperature
No Stations Reporting

Nearby Weather Stations